Time;durP1;ratioP1;P1;durP2;ratioP2;P2;SDS_P1;SDS_P2;PMS_P1;PMS_P2;Temp;Humidity;BMP_temperature;BMP_pressure;BME280_temperature;BME280_humidity;BME280_pressure;Samples;Min_cycle;Max_cycle;Signal;HPM_P1;HPM_P2
2021/12/31 00:01:42;;;;;;;1.30;1.20;;;12.90;99.90;;;;;;5017107;28;20473;-85
2021/12/31 00:04:08;;;;;;;1.87;1.70;;;12.80;99.90;;;;;;5012664;28;20486;-85
2021/12/31 00:06:37;;;;;;;1.43;1.33;;;12.80;99.90;;;;;;5000619;28;20464;-85
2021/12/31 00:09:04;;;;;;;1.47;1.37;;;12.90;99.90;;;;;;5015193;28;20446;-86
2021/12/31 00:11:31;;;;;;;1.63;1.53;;;12.90;99.90;;;;;;5017391;28;20919;-85
2021/12/31 00:13:57;;;;;;;1.90;1.80;;;12.70;99.90;;;;;;5017705;28;20453;-85
2021/12/31 00:16:24;;;;;;;1.60;1.50;;;12.70;99.90;;;;;;5017498;28;20457;-84
2021/12/31 00:18:53;;;;;;;1.57;1.40;;;12.70;99.90;;;;;;5017284;28;20450;-84
2021/12/31 00:21:19;;;;;;;1.30;0.97;;;12.70;99.90;;;;;;5017138;28;20584;-86
2021/12/31 00:23:47;;;;;;;1.90;1.80;;;12.70;99.90;;;;;;5018804;28;20493;-85
2021/12/31 00:26:14;;;;;;;2.00;1.80;;;12.60;99.90;;;;;;5000034;28;20982;-83
2021/12/31 00:28:41;;;;;;;3.73;1.80;;;12.60;99.90;;;;;;5002094;28;20461;-84
2021/12/31 00:31:08;;;;;;;1.80;1.37;;;12.60;99.90;;;;;;5001242;28;20484;-83
2021/12/31 00:33:34;;;;;;;1.60;1.50;;;12.60;99.90;;;;;;5000188;28;20454;-84
2021/12/31 00:36:01;;;;;;;1.63;1.53;;;12.60;99.90;;;;;;5000966;28;20983;-82
2021/12/31 00:38:28;;;;;;;2.03;1.93;;;12.60;99.90;;;;;;5006489;28;20454;-82
2021/12/31 00:40:56;;;;;;;1.50;1.40;;;12.50;99.90;;;;;;5025558;28;20838;-83
2021/12/31 00:43:23;;;;;;;2.00;1.50;;;12.40;99.90;;;;;;5024573;28;20856;-84
2021/12/31 00:45:49;;;;;;;1.93;1.70;;;12.40;99.90;;;;;;5025565;28;20492;-82
2021/12/31 00:48:16;;;;;;;1.70;1.60;;;12.40;99.90;;;;;;5023524;28;20452;-85
2021/12/31 00:50:43;;;;;;;1.70;1.60;;;12.40;99.90;;;;;;5022256;28;20480;-83
2021/12/31 00:53:10;;;;;;;1.70;1.60;;;12.40;99.90;;;;;;5019416;28;20457;-82
2021/12/31 00:55:37;;;;;;;2.67;2.00;;;12.30;99.90;;;;;;5019467;28;20445;-83
2021/12/31 00:58:06;;;;;;;1.80;1.70;;;12.20;99.90;;;;;;5002878;28;20458;-83
2021/12/31 01:00:33;;;;;;;2.33;2.00;;;12.20;99.90;;;;;;5001900;28;20568;-83
2021/12/31 01:03:00;;;;;;;2.27;2.00;;;12.30;99.90;;;;;;5003204;28;20445;-83
2021/12/31 01:05:27;;;;;;;1.60;1.50;;;12.20;99.90;;;;;;5000056;28;20461;-83
2021/12/31 01:07:54;;;;;;;2.03;1.67;;;12.20;99.90;;;;;;5007825;28;20461;-83
2021/12/31 01:10:23;;;;;;;2.17;1.60;;;12.10;99.90;;;;;;5016688;28;20481;-83
2021/12/31 01:12:51;;;;;;;2.17;2.07;;;12.00;99.90;;;;;;5018105;28;20467;-82
2021/12/31 01:15:23;;;;;;;2.20;2.10;;;12.00;99.90;;;;;;5018411;28;20942;-83
2021/12/31 01:18:19;;;;;;;2.03;1.50;;;12.00;99.90;;;;;;5018086;28;20441;-83
2021/12/31 01:20:46;;;;;;;1.40;1.30;;;12.00;99.90;;;;;;5009484;28;20485;-83
2021/12/31 01:23:15;;;;;;;1.83;1.40;;;11.80;99.90;;;;;;5008022;28;20513;-83
2021/12/31 01:25:42;;;;;;;1.73;1.63;;;11.90;99.90;;;;;;5016283;28;20542;-83
2021/12/31 01:28:09;;;;;;;3.07;1.97;;;11.80;99.90;;;;;;4998109;28;20453;-84
2021/12/31 01:30:39;;;;;;;2.65;1.65;;;11.70;99.90;;;;;;4996103;28;20833;-84
2021/12/31 01:33:06;;;;;;;2.30;2.10;;;11.70;99.90;;;;;;4998346;28;20226;-84
2021/12/31 01:35:32;;;;;;;2.00;1.83;;;11.80;99.90;;;;;;4998560;28;20441;-83
2021/12/31 01:37:59;;;;;;;2.37;2.17;;;11.70;99.90;;;;;;4996197;28;20206;-83
2021/12/31 01:40:26;;;;;;;1.80;1.70;;;11.60;99.90;;;;;;4996211;28;20960;-85
2021/12/31 01:42:53;;;;;;;1.93;1.77;;;11.50;99.90;;;;;;4997486;28;20476;-82
2021/12/31 01:45:21;;;;;;;3.13;2.93;;;11.50;99.90;;;;;;4998577;28;20496;-82
2021/12/31 01:50:31;;;;;;;2.53;1.77;;;11.50;99.90;;;;;;5016730;28;20959;-83
2021/12/31 01:52:58;;;;;;;3.07;2.17;;;11.40;99.90;;;;;;5003908;28;20450;-83
2021/12/31 01:55:27;;;;;;;2.03;1.50;;;11.40;99.90;;;;;;5000665;28;20947;-83
2021/12/31 01:57:55;;;;;;;2.83;1.77;;;11.20;99.90;;;;;;5012660;28;20453;-85
2021/12/31 02:00:24;;;;;;;2.03;1.73;;;11.10;99.90;;;;;;5003660;28;20539;-82
2021/12/31 02:02:53;;;;;;;3.13;1.70;;;11.10;99.90;;;;;;5000611;28;20430;-84
2021/12/31 02:05:20;;;;;;;2.60;2.20;;;11.10;99.90;;;;;;5018645;28;20976;-83
2021/12/31 02:07:46;;;;;;;2.00;1.43;;;11.00;99.90;;;;;;5018331;28;20465;-83
2021/12/31 02:10:13;;;;;;;2.40;1.70;;;10.90;99.90;;;;;;5016100;28;21004;-83
2021/12/31 02:12:44;;;;;;;1.77;1.67;;;10.90;99.90;;;;;;5016007;28;20457;-83
2021/12/31 02:15:11;;;;;;;2.47;1.67;;;10.80;99.90;;;;;;5018161;28;20474;-83
2021/12/31 02:17:38;;;;;;;1.77;1.67;;;10.80;99.90;;;;;;5016196;28;20213;-83
2021/12/31 02:20:08;;;;;;;1.60;1.50;;;10.80;99.90;;;;;;4995651;28;20492;-84
2021/12/31 02:22:37;;;;;;;2.70;2.50;;;10.80;99.90;;;;;;4996170;28;20201;-83
2021/12/31 02:25:05;;;;;;;2.20;2.00;;;10.70;99.90;;;;;;4995982;28;20252;-83
2021/12/31 02:27:37;;;;;;;2.22;2.03;;;10.70;99.90;;;;;;4995591;28;20212;-83
2021/12/31 02:30:05;;;;;;;2.78;2.00;;;10.70;99.90;;;;;;4995163;28;20209;-83
2021/12/31 02:32:31;;;;;;;2.00;1.90;;;10.50;99.90;;;;;;4995943;28;20256;-84
2021/12/31 02:34:58;;;;;;;2.17;1.95;;;10.50;99.90;;;;;;4997413;28;20807;-83
2021/12/31 02:37:27;;;;;;;2.53;2.33;;;10.50;99.90;;;;;;5018332;28;20215;-83
2021/12/31 02:39:53;;;;;;;5.72;2.40;;;10.60;99.90;;;;;;5017000;28;20458;-85
2021/12/31 02:42:20;;;;;;;2.63;2.38;;;10.50;99.90;;;;;;5000863;28;20203;-84
2021/12/31 02:44:49;;;;;;;3.10;2.08;;;10.40;99.90;;;;;;4995243;28;20219;-83
2021/12/31 02:47:16;;;;;;;2.85;2.53;;;10.50;99.90;;;;;;5001059;28;20192;-83
2021/12/31 02:49:44;;;;;;;2.42;2.22;;;10.40;99.90;;;;;;5015211;28;20531;-83
2021/12/31 02:52:13;;;;;;;3.83;1.83;;;10.30;99.90;;;;;;5014974;28;20235;-83
2021/12/31 02:54:43;;;;;;;2.17;1.58;;;10.40;99.90;;;;;;5014830;28;20213;-87
2021/12/31 02:57:11;;;;;;;3.43;1.70;;;10.40;99.90;;;;;;5015119;28;20197;-85
2021/12/31 02:59:38;;;;;;;2.10;2.00;;;10.30;99.90;;;;;;5014968;28;20452;-86
2021/12/31 03:02:06;;;;;;;3.78;1.70;;;10.30;99.90;;;;;;5016518;28;20231;-83
2021/12/31 03:04:36;;;;;;;2.07;1.97;;;10.30;99.90;;;;;;5014699;28;20775;-83
2021/12/31 03:07:05;;;;;;;3.80;1.60;;;10.30;99.90;;;;;;5016805;28;21007;-83
2021/12/31 03:09:32;;;;;;;1.43;1.33;;;10.20;99.90;;;;;;5017473;28;20213;-83
2021/12/31 03:12:01;;;;;;;3.47;2.10;;;10.30;99.90;;;;;;5006601;28;20476;-83
2021/12/31 03:14:30;;;;;;;1.70;1.33;;;10.30;99.90;;;;;;4997926;28;20203;-83
2021/12/31 03:16:59;;;;;;;2.00;1.90;;;10.20;99.90;;;;;;4999438;28;20220;-84
2021/12/31 03:19:26;;;;;;;4.05;1.48;;;10.20;99.90;;;;;;5000664;28;20647;-83
2021/12/31 03:21:53;;;;;;;2.35;1.65;;;10.20;99.90;;;;;;5019577;28;20231;-83
2021/12/31 03:24:20;;;;;;;1.70;1.60;;;10.20;99.90;;;;;;5005286;28;20727;-83
2021/12/31 03:26:47;;;;;;;2.17;1.80;;;10.20;99.90;;;;;;4999564;28;20209;-83
2021/12/31 03:29:15;;;;;;;1.88;1.65;;;10.30;99.90;;;;;;5012660;28;20210;-83
2021/12/31 03:31:41;;;;;;;1.23;1.20;;;10.20;99.90;;;;;;5019571;28;20232;-84
2021/12/31 03:34:10;;;;;;;2.40;2.17;;;10.30;99.90;;;;;;5008026;28;20209;-83
2021/12/31 03:36:37;;;;;;;2.92;2.22;;;10.30;99.90;;;;;;5000222;28;20218;-83
2021/12/31 03:39:04;;;;;;;3.25;2.00;;;10.20;99.90;;;;;;5010184;28;20220;-83
2021/12/31 03:41:31;;;;;;;1.55;1.45;;;10.10;99.90;;;;;;5006839;28;20225;-83
2021/12/31 03:43:58;;;;;;;2.00;1.85;;;10.10;99.90;;;;;;5010547;28;20270;-83
2021/12/31 03:46:26;;;;;;;3.38;2.03;;;10.10;99.90;;;;;;5019578;28;20212;-83
2021/12/31 03:48:53;;;;;;;4.60;2.08;;;10.00;99.90;;;;;;5011688;28;20209;-83
2021/12/31 03:51:20;;;;;;;2.25;2.05;;;10.00;99.90;;;;;;5002138;28;20237;-85
2021/12/31 03:53:46;;;;;;;4.85;3.80;;;10.10;99.90;;;;;;5017206;28;20205;-83
2021/12/31 03:56:13;;;;;;;2.20;1.70;;;9.90;99.90;;;;;;5018291;28;20211;-83
2021/12/31 03:58:40;;;;;;;2.25;2.05;;;10.00;99.90;;;;;;5018655;28;20205;-83
2021/12/31 04:01:07;;;;;;;2.38;1.95;;;9.90;99.90;;;;;;5010264;28;20229;-84
2021/12/31 04:03:35;;;;;;;2.30;2.20;;;9.90;99.90;;;;;;4999385;28;20725;-84
2021/12/31 04:06:02;;;;;;;1.95;1.75;;;10.00;99.90;;;;;;5018930;28;20227;-83
2021/12/31 04:08:29;;;;;;;4.60;2.10;;;10.00;99.90;;;;;;5018714;28;20204;-83
2021/12/31 04:10:55;;;;;;;2.30;2.08;;;10.00;99.90;;;;;;5018770;28;20232;-83
2021/12/31 04:13:22;;;;;;;2.80;2.50;;;10.00;99.90;;;;;;5014629;28;20284;-84
2021/12/31 04:15:49;;;;;;;2.70;1.92;;;10.00;99.90;;;;;;5000796;28;20204;-84
2021/12/31 04:18:16;;;;;;;4.60;2.08;;;10.00;99.90;;;;;;5000562;28;20217;-83
2021/12/31 04:20:45;;;;;;;3.13;2.92;;;9.90;99.90;;;;;;5001755;28;20606;-83
2021/12/31 04:23:25;;;;;;;2.90;2.35;;;9.80;99.90;;;;;;5019279;28;20212;-84
2021/12/31 04:25:51;;;;;;;2.83;2.63;;;9.80;99.90;;;;;;5017561;28;20236;-84
2021/12/31 04:28:18;;;;;;;2.28;2.00;;;9.80;99.90;;;;;;5011665;28;20234;-83
2021/12/31 04:30:45;;;;;;;3.47;2.80;;;9.70;99.90;;;;;;5000684;28;20590;-83
2021/12/31 04:33:12;;;;;;;2.35;2.15;;;9.70;99.90;;;;;;5019687;28;20218;-83
2021/12/31 04:35:39;;;;;;;4.35;2.80;;;9.80;99.90;;;;;;5018757;28;20203;-84
2021/12/31 04:38:07;;;;;;;2.58;2.38;;;9.70;99.90;;;;;;4998639;28;20211;-84
2021/12/31 04:40:34;;;;;;;3.70;2.65;;;9.70;99.90;;;;;;4998657;28;20239;-84
2021/12/31 04:43:00;;;;;;;3.78;2.15;;;9.60;99.90;;;;;;5017793;28;20204;-83
2021/12/31 04:45:27;;;;;;;2.72;2.53;;;9.60;99.90;;;;;;5018494;28;20228;-83
2021/12/31 04:47:55;;;;;;;2.50;2.30;;;9.70;99.90;;;;;;5018065;28;20585;-83
2021/12/31 04:50:22;;;;;;;4.57;2.10;;;9.60;99.90;;;;;;5018278;28;20223;-83
2021/12/31 04:52:48;;;;;;;2.90;2.70;;;9.60;99.90;;;;;;4999740;28;20212;-83
2021/12/31 04:55:16;;;;;;;3.75;2.70;;;9.60;99.90;;;;;;4999278;28;20208;-83
2021/12/31 04:57:47;;;;;;;2.10;2.00;;;9.60;99.90;;;;;;5017088;28;20235;-83
2021/12/31 05:00:14;;;;;;;4.22;2.42;;;9.50;99.90;;;;;;5018927;28;20234;-83
2021/12/31 05:02:41;;;;;;;5.00;2.30;;;9.50;99.90;;;;;;5001779;28;20208;-83
2021/12/31 05:05:09;;;;;;;2.75;2.40;;;9.50;99.90;;;;;;4998559;28;20237;-84
2021/12/31 05:07:36;;;;;;;2.38;2.28;;;9.50;99.90;;;;;;5014564;28;20582;-84
2021/12/31 05:10:03;;;;;;;2.55;2.10;;;9.50;99.90;;;;;;5002146;28;20228;-83
2021/12/31 05:12:33;;;;;;;2.97;2.45;;;9.60;99.90;;;;;;5016524;28;20213;-83
2021/12/31 05:15:02;;;;;;;3.38;1.98;;;9.50;99.90;;;;;;5022183;28;20231;-84
2021/12/31 05:17:29;;;;;;;2.38;2.17;;;9.50;99.90;;;;;;5009006;28;20258;-83
2021/12/31 05:19:56;;;;;;;3.75;2.72;;;9.50;99.90;;;;;;5002734;28;20203;-83
2021/12/31 05:22:22;;;;;;;2.40;2.15;;;9.60;99.90;;;;;;5021523;28;20215;-83
2021/12/31 05:24:49;;;;;;;2.75;2.55;;;9.60;99.90;;;;;;5022205;28;20226;-83
2021/12/31 05:27:16;;;;;;;2.70;2.50;;;9.50;99.90;;;;;;5002944;28;20678;-83
2021/12/31 05:29:44;;;;;;;2.60;2.40;;;9.50;99.90;;;;;;5011321;28;20203;-83
2021/12/31 05:32:11;;;;;;;2.95;2.40;;;9.40;99.90;;;;;;5020565;28;20673;-83
2021/12/31 05:34:38;;;;;;;3.95;2.47;;;9.50;99.90;;;;;;5002123;28;20200;-83
2021/12/31 05:37:05;;;;;;;2.83;2.63;;;9.40;99.90;;;;;;5015819;28;20206;-83
2021/12/31 05:39:31;;;;;;;2.95;2.58;;;9.40;99.90;;;;;;5020856;28;20223;-82
2021/12/31 05:41:58;;;;;;;3.22;2.60;;;9.30;99.90;;;;;;5020437;28;20224;-83
2021/12/31 05:44:25;;;;;;;2.50;1.90;;;9.30;99.90;;;;;;5020637;28;20207;-83
2021/12/31 05:46:55;;;;;;;3.15;2.35;;;9.30;99.90;;;;;;5010521;28;20200;-83
2021/12/31 05:49:21;;;;;;;2.58;2.35;;;9.20;99.90;;;;;;5021417;28;20204;-83
2021/12/31 05:51:50;;;;;;;3.13;2.65;;;9.10;99.90;;;;;;5021579;28;20227;-83
2021/12/31 05:54:16;;;;;;;2.60;2.40;;;9.20;99.90;;;;;;5022354;28;20207;-83
2021/12/31 05:56:43;;;;;;;4.90;2.40;;;9.20;99.90;;;;;;5019569;28;20208;-83
2021/12/31 05:59:10;;;;;;;3.53;2.55;;;9.20;99.90;;;;;;5002643;28;20214;-83
2021/12/31 06:01:36;;;;;;;3.15;2.53;;;9.20;99.90;;;;;;5018644;28;20223;-83
2021/12/31 06:04:05;;;;;;;3.00;2.58;;;9.20;99.90;;;;;;5023221;28;20207;-83
2021/12/31 06:06:31;;;;;;;2.40;2.20;;;9.10;99.90;;;;;;5009046;28;20220;-83
2021/12/31 06:08:58;;;;;;;3.05;2.47;;;9.10;99.90;;;;;;5006069;28;20203;-83
2021/12/31 06:11:25;;;;;;;6.82;3.28;;;9.10;99.90;;;;;;5021567;28;20233;-83
2021/12/31 06:14:00;;;;;;;3.28;2.97;;;8.90;99.90;;;;;;5020693;28;20207;-83
2021/12/31 06:16:28;;;;;;;2.58;2.35;;;9.00;99.90;;;;;;5004725;28;20206;-83
2021/12/31 06:18:55;;;;;;;3.60;3.30;;;8.90;99.90;;;;;;5004946;28;20631;-83
2021/12/31 06:21:23;;;;;;;2.85;2.55;;;8.80;99.90;;;;;;5014600;28;20232;-83
2021/12/31 06:23:50;;;;;;;2.88;2.65;;;8.80;99.90;;;;;;5003457;28;20266;-82
2021/12/31 06:26:16;;;;;;;2.88;2.67;;;8.80;99.90;;;;;;5022106;28;20319;-82
2021/12/31 06:28:43;;;;;;;5.25;2.80;;;8.70;99.90;;;;;;5021778;28;20199;-83
2021/12/31 06:31:10;;;;;;;2.83;2.63;;;8.70;99.90;;;;;;4996997;28;20230;-83
2021/12/31 06:33:37;;;;;;;2.58;2.38;;;8.80;99.90;;;;;;5003180;28;20207;-82
2021/12/31 06:36:04;;;;;;;3.53;2.45;;;8.70;99.90;;;;;;5016531;28;20203;-82
2021/12/31 06:38:32;;;;;;;2.80;2.60;;;8.60;99.90;;;;;;5013602;28;20216;-84
2021/12/31 06:40:58;;;;;;;2.97;2.42;;;8.70;99.90;;;;;;4996629;28;20231;-83
2021/12/31 06:43:25;;;;;;;2.45;2.30;;;8.60;99.90;;;;;;4997630;28;20211;-84
2021/12/31 06:45:52;;;;;;;3.05;2.30;;;8.70;99.90;;;;;;4997357;28;20236;-83
2021/12/31 06:48:19;;;;;;;3.33;3.03;;;8.80;99.90;;;;;;4997705;28;20222;-83
2021/12/31 06:50:45;;;;;;;2.63;2.42;;;8.80;99.90;;;;;;4997004;28;20231;-84
2021/12/31 06:53:12;;;;;;;2.63;2.42;;;8.80;99.90;;;;;;4997215;28;20204;-83
2021/12/31 06:55:40;;;;;;;3.28;2.85;;;8.80;99.90;;;;;;4998551;28;20204;-82
2021/12/31 06:58:07;;;;;;;3.05;2.85;;;8.80;99.90;;;;;;4997116;28;20212;-83
2021/12/31 07:00:35;;;;;;;2.90;2.60;;;8.80;99.90;;;;;;4997973;28;20232;-84
2021/12/31 07:03:06;;;;;;;3.92;3.67;;;8.80;99.90;;;;;;5003295;28;20206;-83
2021/12/31 07:05:33;;;;;;;4.82;3.33;;;8.80;99.90;;;;;;5016983;28;20216;-82
2021/12/31 07:08:00;;;;;;;3.13;2.92;;;8.80;99.90;;;;;;5008225;28;20208;-84
2021/12/31 07:10:27;;;;;;;2.90;2.70;;;8.90;99.90;;;;;;5008746;28;20243;-84
2021/12/31 07:12:59;;;;;;;3.95;3.65;;;8.70;99.90;;;;;;5015250;28;20222;-83
2021/12/31 07:15:26;;;;;;;3.55;3.25;;;8.60;99.90;;;;;;5006194;28;20822;-84
2021/12/31 07:17:53;;;;;;;3.92;3.50;;;8.60;99.90;;;;;;5004125;28;20269;-83
2021/12/31 07:20:20;;;;;;;3.30;2.63;;;8.60;99.90;;;;;;5004735;28;20895;-84
2021/12/31 07:22:47;;;;;;;3.60;3.33;;;8.60;99.90;;;;;;5004369;28;20251;-84
2021/12/31 07:25:14;;;;;;;3.83;3.63;;;8.60;99.90;;;;;;5003382;28;20202;-82
2021/12/31 07:27:41;;;;;;;4.07;3.78;;;8.70;99.90;;;;;;5004077;28;20195;-84
2021/12/31 07:30:12;;;;;;;6.28;5.15;;;8.70;99.90;;;;;;5002539;28;20223;-83
2021/12/31 07:32:39;;;;;;;13.77;5.20;;;8.70;99.90;;;;;;5002092;28;20744;-84
2021/12/31 07:35:06;;;;;;;4.95;4.10;;;8.70;99.90;;;;;;5006629;28;20207;-84
2021/12/31 07:37:33;;;;;;;5.00;4.55;;;8.70;99.90;;;;;;5002496;28;20206;-84
2021/12/31 07:40:03;;;;;;;5.38;3.90;;;8.80;99.90;;;;;;5002598;28;20227;-84
2021/12/31 07:42:30;;;;;;;4.22;3.83;;;8.80;99.90;;;;;;5001408;28;20205;-84
2021/12/31 07:44:57;;;;;;;6.32;4.88;;;8.90;99.90;;;;;;5003638;28;20203;-84
2021/12/31 07:47:25;;;;;;;6.20;5.57;;;8.80;99.90;;;;;;5003369;28;20211;-84
2021/12/31 07:49:52;;;;;;;5.20;4.70;;;8.80;99.90;;;;;;5001428;28;20195;-84
2021/12/31 07:52:19;;;;;;;7.63;6.10;;;8.80;99.90;;;;;;5002870;28;20202;-84
2021/12/31 07:54:45;;;;;;;5.35;4.82;;;8.80;99.90;;;;;;5003516;28;20206;-84
2021/12/31 07:57:12;;;;;;;5.40;4.90;;;8.90;99.90;;;;;;5002462;28;20217;-84
2021/12/31 07:59:39;;;;;;;10.80;8.23;;;8.90;99.90;;;;;;5002978;28;20835;-84
2021/12/31 08:02:06;;;;;;;7.30;6.60;;;8.90;99.90;;;;;;5003784;28;20232;-84
2021/12/31 08:04:34;;;;;;;9.02;6.95;;;9.00;99.90;;;;;;5002254;28;20200;-84
2021/12/31 08:07:01;;;;;;;7.40;6.35;;;9.00;99.90;;;;;;5003826;28;20619;-85
2021/12/31 08:09:27;;;;;;;8.00;6.57;;;9.10;99.90;;;;;;4994223;28;20674;-83
2021/12/31 08:11:54;;;;;;;6.88;5.32;;;9.20;99.90;;;;;;5004501;28;20229;-83
2021/12/31 08:14:21;;;;;;;8.40;5.70;;;9.20;99.90;;;;;;4993874;28;20209;-84
2021/12/31 08:16:48;;;;;;;6.28;5.65;;;9.20;99.90;;;;;;4994018;28;20239;-84
2021/12/31 08:19:14;;;;;;;5.78;5.18;;;9.30;99.90;;;;;;4993054;28;20262;-84
2021/12/31 08:21:42;;;;;;;5.28;4.78;;;9.40;99.90;;;;;;4992968;28;20223;-83
2021/12/31 08:24:09;;;;;;;5.47;4.97;;;9.40;99.90;;;;;;5012373;28;20665;-84
2021/12/31 08:26:37;;;;;;;6.32;5.75;;;9.50;99.90;;;;;;5013423;28;20213;-82
2021/12/31 08:29:04;;;;;;;6.15;5.55;;;9.60;99.90;;;;;;5012998;28;20211;-82
2021/12/31 08:31:31;;;;;;;5.85;4.95;;;9.80;99.90;;;;;;5012299;28;20252;-84
2021/12/31 08:33:58;;;;;;;6.25;5.75;;;9.80;99.90;;;;;;5011602;28;20693;-85
2021/12/31 08:36:24;;;;;;;5.90;5.30;;;9.90;99.90;;;;;;5012325;28;20244;-84
2021/12/31 08:38:52;;;;;;;6.72;5.72;;;9.90;99.90;;;;;;4995948;28;20212;-84
2021/12/31 08:41:19;;;;;;;7.15;6.45;;;9.90;99.90;;;;;;4992780;28;20583;-84
2021/12/31 08:43:46;;;;;;;6.30;5.35;;;10.00;99.90;;;;;;5007779;28;20213;-83
2021/12/31 08:46:14;;;;;;;5.65;4.55;;;10.00;99.90;;;;;;4996835;28;20208;-86
2021/12/31 08:48:48;;;;;;;9.23;6.68;;;10.00;99.90;;;;;;5010745;28;20211;-85
2021/12/31 08:51:14;;;;;;;7.50;5.45;;;10.10;99.90;;;;;;5013047;28;20268;-82
2021/12/31 08:53:41;;;;;;;6.40;5.57;;;10.20;99.90;;;;;;5007028;28;20212;-84
2021/12/31 08:56:09;;;;;;;7.18;5.72;;;10.20;99.90;;;;;;5021972;28;20235;-83
2021/12/31 08:58:36;;;;;;;8.50;5.05;;;10.30;99.90;;;;;;5022845;28;20238;-82
2021/12/31 09:01:03;;;;;;;4.70;4.30;;;10.40;99.90;;;;;;5018330;28;20219;-82
2021/12/31 09:03:30;;;;;;;7.25;5.35;;;10.50;99.90;;;;;;5015533;28;20204;-83
2021/12/31 09:05:57;;;;;;;5.80;5.03;;;10.60;99.90;;;;;;5022053;28;20205;-82
2021/12/31 09:08:24;;;;;;;4.90;4.50;;;10.60;99.90;;;;;;5010786;28;20442;-81
2021/12/31 09:10:50;;;;;;;7.15;6.47;;;10.60;99.90;;;;;;5015316;28;20465;-84
2021/12/31 09:13:41;;;;;;;6.35;5.13;;;10.60;99.90;;;;;;5014571;28;20257;-82
2021/12/31 09:16:08;;;;;;;6.05;5.28;;;10.70;99.90;;;;;;5016975;28;20220;-84
2021/12/31 09:18:35;;;;;;;4.70;4.30;;;10.80;99.90;;;;;;5014793;28;20205;-82
2021/12/31 09:21:02;;;;;;;8.80;5.45;;;10.80;99.90;;;;;;5013088;28;20245;-84
2021/12/31 09:23:29;;;;;;;7.03;4.60;;;10.90;99.90;;;;;;5013927;28;20201;-82
2021/12/31 09:25:57;;;;;;;5.18;4.68;;;10.90;99.90;;;;;;5011889;28;20451;-83
2021/12/31 09:28:27;;;;;;;5.57;4.32;;;10.90;99.90;;;;;;5009701;28;20201;-84
2021/12/31 09:30:55;;;;;;;4.60;4.18;;;10.90;99.90;;;;;;5008811;28;20231;-82
2021/12/31 09:33:23;;;;;;;6.15;5.55;;;11.00;99.90;;;;;;5010616;28;20272;-84
2021/12/31 09:35:49;;;;;;;6.80;5.80;;;11.00;99.90;;;;;;5013970;28;20216;-83
2021/12/31 09:38:16;;;;;;;5.60;5.10;;;11.00;99.90;;;;;;5011968;28;20457;-84
2021/12/31 09:40:43;;;;;;;5.67;4.80;;;11.10;99.90;;;;;;5013849;28;20474;-84
2021/12/31 09:43:12;;;;;;;5.13;4.63;;;11.20;99.90;;;;;;5020764;28;20480;-82
2021/12/31 09:45:45;;;;;;;4.97;4.55;;;11.40;99.90;;;;;;5006668;28;20842;-83
2021/12/31 09:48:16;;;;;;;4.63;4.23;;;11.30;99.90;;;;;;5017783;28;20576;-86
2021/12/31 09:50:46;;;;;;;5.57;4.33;;;11.30;99.90;;;;;;5020874;28;20566;-83
2021/12/31 09:53:15;;;;;;;5.03;3.90;;;11.20;99.90;;;;;;5020745;28;20944;-84
2021/12/31 09:55:44;;;;;;;3.37;3.07;;;11.40;99.90;;;;;;5020379;28;20202;-80
2021/12/31 09:58:13;;;;;;;5.50;3.80;;;11.30;99.90;;;;;;5018474;28;20457;-81
2021/12/31 10:00:43;;;;;;;5.07;4.57;;;11.50;99.90;;;;;;5020085;28;20476;-81
2021/12/31 10:03:15;;;;;;;4.13;3.73;;;11.50;99.90;;;;;;5019793;28;20833;-82
2021/12/31 10:05:43;;;;;;;4.43;4.03;;;11.60;99.90;;;;;;5019631;28;20461;-81
2021/12/31 10:08:18;;;;;;;4.32;4.03;;;11.70;99.90;;;;;;5017351;28;20464;-81
2021/12/31 10:11:07;;;;;;;5.00;4.10;;;11.80;99.90;;;;;;5020581;28;20229;-80
2021/12/31 10:13:35;;;;;;;5.53;4.23;;;11.80;99.90;;;;;;5008283;28;20520;-81
2021/12/31 10:16:03;;;;;;;5.83;5.30;;;11.90;99.90;;;;;;4998275;28;20461;-81
2021/12/31 10:18:33;;;;;;;7.33;4.33;;;12.00;99.90;;;;;;5016038;28;20484;-81
2021/12/31 10:21:00;;;;;;;4.23;3.83;;;12.10;99.90;;;;;;4999304;28;20474;-82
2021/12/31 10:23:27;;;;;;;5.03;4.63;;;12.20;99.90;;;;;;5019578;28;20656;-84
2021/12/31 10:38:13;;;;;;;5.27;4.40;;;12.90;99.90;;;;;;5013098;28;20827;-86
2021/12/31 10:43:33;;;;;;;4.53;4.20;;;13.10;99.90;;;;;;4973713;28;20463;-83
2021/12/31 10:46:09;;;;;;;3.73;3.40;;;13.60;99.90;;;;;;4973786;28;20462;-82
2021/12/31 10:48:43;;;;;;;4.80;3.80;;;14.00;99.90;;;;;;4987008;28;20454;-84
2021/12/31 10:51:17;;;;;;;5.03;3.40;;;14.50;99.90;;;;;;4994046;28;20485;-85
2021/12/31 10:53:51;;;;;;;3.90;3.50;;;15.00;99.90;;;;;;5014858;28;20490;-85
2021/12/31 10:56:18;;;;;;;4.07;3.63;;;15.40;99.90;;;;;;5000845;28;20440;-84
2021/12/31 10:58:47;;;;;;;3.87;3.50;;;15.80;99.90;;;;;;4999713;28;20463;-85
2021/12/31 11:01:15;;;;;;;3.80;3.20;;;16.40;99.90;;;;;;5000208;28;20565;-86
2021/12/31 11:03:43;;;;;;;3.40;3.10;;;16.70;99.90;;;;;;5006405;28;20466;-85
2021/12/31 11:06:13;;;;;;;2.73;2.50;;;17.40;99.90;;;;;;4998220;28;20444;-84
2021/12/31 11:09:08;;;;;;;4.23;3.37;;;17.80;99.90;;;;;;5006953;28;20473;-84
2021/12/31 11:11:35;;;;;;;4.60;4.20;;;18.60;99.90;;;;;;4993035;28;20475;-85
2021/12/31 11:14:03;;;;;;;4.50;3.57;;;19.20;99.90;;;;;;4996756;28;20460;-85
2021/12/31 11:16:30;;;;;;;4.30;3.70;;;19.40;99.60;;;;;;4993803;28;20516;-85
2021/12/31 11:18:57;;;;;;;3.10;2.90;;;19.20;99.60;;;;;;5010544;28;20487;-85
2021/12/31 11:21:24;;;;;;;3.30;3.10;;;19.30;99.60;;;;;;5004330;28;20481;-84
2021/12/31 11:23:52;;;;;;;3.67;3.37;;;19.70;98.70;;;;;;4993046;28;20455;-85
2021/12/31 11:26:28;;;;;;;3.20;3.00;;;20.20;98.10;;;;;;4990657;28;20452;-85
2021/12/31 11:28:56;;;;;;;3.90;3.60;;;20.50;96.60;;;;;;4992129;28;20451;-85
2021/12/31 11:31:26;;;;;;;3.97;3.57;;;20.60;96.80;;;;;;4989856;28;20577;-84
2021/12/31 11:34:27;;;;;;;3.30;3.00;;;21.30;96.10;;;;;;4992831;28;20447;-85
2021/12/31 11:36:55;;;;;;;4.20;3.30;;;22.40;94.60;;;;;;4988690;28;20455;-85
2021/12/31 11:39:28;;;;;;;3.47;3.20;;;22.80;93.10;;;;;;4992282;28;20936;-86
2021/12/31 11:41:57;;;;;;;3.33;3.10;;;23.40;92.20;;;;;;4991147;28;20906;-85
2021/12/31 11:44:25;;;;;;;2.77;2.57;;;23.90;91.00;;;;;;4993648;28;20465;-86
2021/12/31 11:46:52;;;;;;;3.63;2.83;;;24.40;90.20;;;;;;4990174;28;20488;-85
2021/12/31 11:49:21;;;;;;;2.63;2.43;;;24.40;88.30;;;;;;4991957;28;20463;-83
2021/12/31 11:52:04;;;;;;;3.50;2.73;;;23.90;87.20;;;;;;4992863;28;20489;-84
2021/12/31 11:54:33;;;;;;;2.50;2.30;;;22.90;89.10;;;;;;4999511;28;20454;-83
2021/12/31 11:57:03;;;;;;;2.67;2.47;;;21.60;91.30;;;;;;5018418;28;20449;-85
2021/12/31 11:59:50;;;;;;;3.80;3.60;;;21.40;92.40;;;;;;5015035;28;20458;-83
2021/12/31 12:02:20;;;;;;;3.00;2.80;;;21.40;92.40;;;;;;4999513;28;20454;-84
2021/12/31 12:05:14;;;;;;;2.50;2.30;;;21.10;92.30;;;;;;4999574;28;20847;-83
2021/12/31 12:07:47;;;;;;;2.30;2.10;;;21.00;92.70;;;;;;4997628;28;20478;-83
2021/12/31 12:10:27;;;;;;;2.60;2.40;;;21.00;92.90;;;;;;4995914;28;20486;-83
2021/12/31 12:13:15;;;;;;;3.20;2.90;;;20.70;93.00;;;;;;5012468;28;20480;-83
2021/12/31 12:15:42;;;;;;;2.17;2.07;;;20.80;93.60;;;;;;5012468;28;20831;-81
2021/12/31 12:18:09;;;;;;;2.33;2.13;;;20.50;93.50;;;;;;4996852;28;20447;-84
2021/12/31 12:20:45;;;;;;;2.70;2.50;;;20.50;93.80;;;;;;5015020;28;20477;-84
2021/12/31 12:23:20;;;;;;;2.43;2.23;;;20.70;93.80;;;;;;5018149;28;20472;-83
2021/12/31 12:25:48;;;;;;;2.80;2.60;;;21.20;93.30;;;;;;4999067;28;20460;-83
2021/12/31 12:28:17;;;;;;;2.33;2.17;;;21.10;92.50;;;;;;5000537;28;20550;-83
2021/12/31 12:30:49;;;;;;;2.40;2.20;;;20.90;92.70;;;;;;4995957;28;20846;-84
2021/12/31 12:33:22;;;;;;;2.20;2.10;;;20.60;93.20;;;;;;5003168;28;20454;-83
2021/12/31 12:35:50;;;;;;;2.23;2.13;;;20.50;93.10;;;;;;5009030;28;20496;-84
2021/12/31 12:38:20;;;;;;;2.50;2.30;;;20.60;94.00;;;;;;5002129;28;20451;-84
2021/12/31 12:40:52;;;;;;;2.43;2.23;;;20.90;93.20;;;;;;5010028;28;20482;-83
2021/12/31 12:43:20;;;;;;;1.97;1.87;;;21.10;92.80;;;;;;5017601;28;20456;-83
2021/12/31 12:45:49;;;;;;;2.13;1.97;;;21.50;92.90;;;;;;5015759;28;20457;-84
2021/12/31 12:48:17;;;;;;;2.47;2.27;;;22.40;91.90;;;;;;4997448;28;20498;-84
2021/12/31 12:50:51;;;;;;;2.83;2.63;;;23.40;90.20;;;;;;4999939;28;20472;-83
2021/12/31 12:53:22;;;;;;;3.30;2.20;;;23.30;88.60;;;;;;5004118;28;20452;-83
2021/12/31 12:56:01;;;;;;;2.10;1.90;;;22.60;87.50;;;;;;5009584;28;20459;-84
2021/12/31 12:58:28;;;;;;;2.17;2.07;;;21.60;90.20;;;;;;5021831;28;20452;-83
2021/12/31 13:00:56;;;;;;;3.30;1.80;;;19.70;91.90;;;;;;5013336;28;20474;-83
2021/12/31 13:03:24;;;;;;;2.23;2.13;;;18.80;94.20;;;;;;4998723;28;20468;-82
2021/12/31 13:06:02;;;;;;;3.13;2.93;;;18.30;94.90;;;;;;5001429;28;20453;-82
2021/12/31 13:08:29;;;;;;;1.97;1.87;;;18.10;95.80;;;;;;5018013;28;20981;-82
2021/12/31 13:10:57;;;;;;;3.13;2.30;;;17.90;96.30;;;;;;5013311;28;20471;-83
2021/12/31 13:13:24;;;;;;;3.07;2.80;;;17.10;97.40;;;;;;5018869;28;20451;-83
2021/12/31 13:15:52;;;;;;;2.50;2.30;;;16.50;98.80;;;;;;5028463;28;20455;-82